Airfield :
LOGIN :

Register | Disclaimer

   EN    FR    IT 

 










Legend :    VFR   Marginal VFR   IFR   Intensive IFR   Very Intensive IFR
Visi :
Ceiling :
>= 8 km
>= 3000ft
5 to 8 km
1000 to 3000 ft
1500m to 5 km
500 to 1000 ft
800 to 1500m
200 to 500 ft
< 800m
< 200 ft
Symbols :   Thunderstorms  Fog  Heavy snow  Heavy precipitations  Wind > 20 kt
SIGMETs :     Misc.  Thunderstorms  Icing  Turbulence  Mountain Waves  Volcanic Ashes






- Airport Elevation : 636 ft


LPBJ - Beja Air Base

CURRENT METAR :
  • 031000Z 23005KT 180V290 9999 FEW020 23/13 Q1014

EXPIRED METARs :
  • 030900Z 27004KT 230V330 9999 FEW020 20/15 Q1014
  • 030824Z 27004KT 220V310 9999 FEW008 19/15 Q1014
  • 030800Z 27003KT 210V340 9999 FEW003 BKN040 17/15 Q1014
  • 030744Z 26004KT 220V290 9999 SCT003 BKN040 17/15 Q1014

TAF TAF LPBJ
Valid from the 03 at 06:00 until the 04 at 06:00 UTC


030515Z 0306/0406 29005KT 2500 BCFG BKN003
BECMG 0306/0308 9999 NSW BKN020
BECMG 0308/0310 SCT040
BECMG 0314/0316 29010KT
BECMG 0402/0404 7000 SCT007 BKN040
PROB40
TEMPO 0402/0406 2000 RADZ BKN006 FEW018TCU



MET'MAP, your aeronautical weather chart ! - Copyright ORBIFLY December 2007 - Disclaimer

ORBIFLY MET'MAP TEAM :

Programming & Development : Alexandra Zaïnal
Concept & original design : Baudouin d'Aumeries
Assistance for programming : Marc-Olivier Méhu
Technical & hardware support : Manuel Goepfert

Contact : metmap@orbifly.com




SOURCES & CREDITS :

   NOAA